sensor_id;sensor_type;location;lat;lon;timestamp;P1;durP1;ratioP1;P2;durP2;ratioP2
42586;SDS011;28216;53.362;-6.288;2022-12-16T00:01:17;41.42;;;21.60;;
42586;SDS011;28216;53.362;-6.288;2022-12-16T00:06:12;44.88;;;21.05;;
42586;SDS011;28216;53.362;-6.288;2022-12-16T00:08:38;42.75;;;21.30;;
42586;SDS011;28216;53.362;-6.288;2022-12-16T00:11:04;41.80;;;20.77;;
42586;SDS011;28216;53.362;-6.288;2022-12-16T00:13:33;40.08;;;20.73;;
42586;SDS011;28216;53.362;-6.288;2022-12-16T00:16:03;41.58;;;21.30;;
42586;SDS011;28216;53.362;-6.288;2022-12-16T00:18:29;40.58;;;20.27;;
42586;SDS011;28216;53.362;-6.288;2022-12-16T00:20:55;37.40;;;19.92;;
42586;SDS011;28216;53.362;-6.288;2022-12-16T00:23:21;39.17;;;19.25;;
42586;SDS011;28216;53.362;-6.288;2022-12-16T00:25:47;40.72;;;19.58;;
42586;SDS011;28216;53.362;-6.288;2022-12-16T00:28:13;35.13;;;18.85;;
42586;SDS011;28216;53.362;-6.288;2022-12-16T00:30:40;35.60;;;19.33;;
42586;SDS011;28216;53.362;-6.288;2022-12-16T00:33:06;36.72;;;18.63;;
42586;SDS011;28216;53.362;-6.288;2022-12-16T00:35:32;38.17;;;18.58;;
42586;SDS011;28216;53.362;-6.288;2022-12-16T00:37:57;39.88;;;18.63;;
42586;SDS011;28216;53.362;-6.288;2022-12-16T00:40:23;35.70;;;19.05;;
42586;SDS011;28216;53.362;-6.288;2022-12-16T00:42:49;41.25;;;19.05;;
42586;SDS011;28216;53.362;-6.288;2022-12-16T00:45:14;44.65;;;19.23;;
42586;SDS011;28216;53.362;-6.288;2022-12-16T00:47:40;38.08;;;19.42;;
42586;SDS011;28216;53.362;-6.288;2022-12-16T00:50:05;37.70;;;18.45;;
42586;SDS011;28216;53.362;-6.288;2022-12-16T00:52:32;41.80;;;19.77;;
42586;SDS011;28216;53.362;-6.288;2022-12-16T00:54:57;37.78;;;18.85;;
42586;SDS011;28216;53.362;-6.288;2022-12-16T00:57:22;39.88;;;19.52;;
42586;SDS011;28216;53.362;-6.288;2022-12-16T00:59:48;38.47;;;19.45;;
42586;SDS011;28216;53.362;-6.288;2022-12-16T01:02:14;33.45;;;17.98;;
42586;SDS011;28216;53.362;-6.288;2022-12-16T01:04:39;33.90;;;17.40;;
42586;SDS011;28216;53.362;-6.288;2022-12-16T01:07:05;35.42;;;18.00;;
42586;SDS011;28216;53.362;-6.288;2022-12-16T01:09:30;42.85;;;19.10;;
42586;SDS011;28216;53.362;-6.288;2022-12-16T01:11:55;38.05;;;17.13;;
42586;SDS011;28216;53.362;-6.288;2022-12-16T01:14:21;33.22;;;17.05;;
42586;SDS011;28216;53.362;-6.288;2022-12-16T01:16:46;36.13;;;17.08;;
42586;SDS011;28216;53.362;-6.288;2022-12-16T01:19:12;38.70;;;17.63;;
42586;SDS011;28216;53.362;-6.288;2022-12-16T01:21:37;35.08;;;16.70;;
42586;SDS011;28216;53.362;-6.288;2022-12-16T01:24:03;34.50;;;16.75;;
42586;SDS011;28216;53.362;-6.288;2022-12-16T01:26:29;31.17;;;17.80;;
42586;SDS011;28216;53.362;-6.288;2022-12-16T01:28:55;35.80;;;18.20;;
42586;SDS011;28216;53.362;-6.288;2022-12-16T01:31:21;32.63;;;17.50;;
42586;SDS011;28216;53.362;-6.288;2022-12-16T01:33:48;37.53;;;18.13;;
42586;SDS011;28216;53.362;-6.288;2022-12-16T01:36:13;35.25;;;17.48;;
42586;SDS011;28216;53.362;-6.288;2022-12-16T01:38:40;31.23;;;16.75;;
42586;SDS011;28216;53.362;-6.288;2022-12-16T01:41:06;40.03;;;17.55;;
42586;SDS011;28216;53.362;-6.288;2022-12-16T01:43:33;31.02;;;16.90;;
42586;SDS011;28216;53.362;-6.288;2022-12-16T01:48:38;34.63;;;18.08;;
42586;SDS011;28216;53.362;-6.288;2022-12-16T01:51:50;35.72;;;17.40;;
42586;SDS011;28216;53.362;-6.288;2022-12-16T01:53:58;37.05;;;16.80;;
42586;SDS011;28216;53.362;-6.288;2022-12-16T01:56:30;34.20;;;16.90;;
42586;SDS011;28216;53.362;-6.288;2022-12-16T01:58:57;37.13;;;18.10;;
42586;SDS011;28216;53.362;-6.288;2022-12-16T02:01:24;40.70;;;18.83;;
42586;SDS011;28216;53.362;-6.288;2022-12-16T02:03:50;39.88;;;18.95;;
42586;SDS011;28216;53.362;-6.288;2022-12-16T02:06:18;36.78;;;18.17;;
42586;SDS011;28216;53.362;-6.288;2022-12-16T02:08:44;38.15;;;17.98;;
42586;SDS011;28216;53.362;-6.288;2022-12-16T02:11:27;37.47;;;17.85;;
42586;SDS011;28216;53.362;-6.288;2022-12-16T02:16:58;37.08;;;17.92;;
42586;SDS011;28216;53.362;-6.288;2022-12-16T02:30:43;35.67;;;16.85;;
42586;SDS011;28216;53.362;-6.288;2022-12-16T02:36:19;33.88;;;16.13;;
42586;SDS011;28216;53.362;-6.288;2022-12-16T02:41:39;32.35;;;15.93;;
42586;SDS011;28216;53.362;-6.288;2022-12-16T02:44:11;31.60;;;15.73;;
42586;SDS011;28216;53.362;-6.288;2022-12-16T02:46:41;32.10;;;16.02;;
42586;SDS011;28216;53.362;-6.288;2022-12-16T02:49:53;32.45;;;15.23;;
42586;SDS011;28216;53.362;-6.288;2022-12-16T02:54:21;31.08;;;14.50;;
42586;SDS011;28216;53.362;-6.288;2022-12-16T03:04:50;32.08;;;14.25;;
42586;SDS011;28216;53.362;-6.288;2022-12-16T03:07:21;28.17;;;13.52;;
42586;SDS011;28216;53.362;-6.288;2022-12-16T03:09:50;28.05;;;13.23;;
42586;SDS011;28216;53.362;-6.288;2022-12-16T03:12:18;25.67;;;13.63;;
42586;SDS011;28216;53.362;-6.288;2022-12-16T03:14:47;23.83;;;12.80;;
42586;SDS011;28216;53.362;-6.288;2022-12-16T03:17:16;24.42;;;13.57;;
42586;SDS011;28216;53.362;-6.288;2022-12-16T03:19:44;24.45;;;13.23;;
42586;SDS011;28216;53.362;-6.288;2022-12-16T03:22:20;24.08;;;12.65;;
42586;SDS011;28216;53.362;-6.288;2022-12-16T03:24:49;26.10;;;11.88;;
42586;SDS011;28216;53.362;-6.288;2022-12-16T03:27:35;26.48;;;12.77;;
42586;SDS011;28216;53.362;-6.288;2022-12-16T03:32:50;26.33;;;12.55;;
42586;SDS011;28216;53.362;-6.288;2022-12-16T03:35:43;23.83;;;12.80;;
42586;SDS011;28216;53.362;-6.288;2022-12-16T03:38:31;23.70;;;12.45;;
42586;SDS011;28216;53.362;-6.288;2022-12-16T03:40:58;22.45;;;12.00;;
42586;SDS011;28216;53.362;-6.288;2022-12-16T03:43:26;22.60;;;12.10;;
42586;SDS011;28216;53.362;-6.288;2022-12-16T03:45:52;26.23;;;12.32;;
42586;SDS011;28216;53.362;-6.288;2022-12-16T03:48:21;24.58;;;12.15;;
42586;SDS011;28216;53.362;-6.288;2022-12-16T03:50:49;21.63;;;12.02;;
42586;SDS011;28216;53.362;-6.288;2022-12-16T03:53:14;22.52;;;11.82;;
42586;SDS011;28216;53.362;-6.288;2022-12-16T03:55:40;29.25;;;12.80;;
42586;SDS011;28216;53.362;-6.288;2022-12-16T03:58:05;24.02;;;12.60;;
42586;SDS011;28216;53.362;-6.288;2022-12-16T04:00:31;23.30;;;12.73;;
42586;SDS011;28216;53.362;-6.288;2022-12-16T04:02:56;29.63;;;12.02;;
42586;SDS011;28216;53.362;-6.288;2022-12-16T04:05:22;23.55;;;12.48;;
42586;SDS011;28216;53.362;-6.288;2022-12-16T04:07:47;26.65;;;13.50;;
42586;SDS011;28216;53.362;-6.288;2022-12-16T04:10:13;27.73;;;12.98;;
42586;SDS011;28216;53.362;-6.288;2022-12-16T04:12:38;27.70;;;12.15;;
42586;SDS011;28216;53.362;-6.288;2022-12-16T04:15:22;27.17;;;13.15;;
42586;SDS011;28216;53.362;-6.288;2022-12-16T04:18:14;23.27;;;12.20;;
42586;SDS011;28216;53.362;-6.288;2022-12-16T04:21:01;26.15;;;12.48;;
42586;SDS011;28216;53.362;-6.288;2022-12-16T04:23:47;23.42;;;11.90;;
42586;SDS011;28216;53.362;-6.288;2022-12-16T04:26:35;22.17;;;12.02;;
42586;SDS011;28216;53.362;-6.288;2022-12-16T04:29:21;24.85;;;11.57;;
42586;SDS011;28216;53.362;-6.288;2022-12-16T04:31:47;24.75;;;11.60;;
42586;SDS011;28216;53.362;-6.288;2022-12-16T04:34:12;24.67;;;12.30;;
42586;SDS011;28216;53.362;-6.288;2022-12-16T04:37:00;20.02;;;11.40;;
42586;SDS011;28216;53.362;-6.288;2022-12-16T04:39:45;22.38;;;11.15;;
42586;SDS011;28216;53.362;-6.288;2022-12-16T04:42:30;20.30;;;10.80;;
42586;SDS011;28216;53.362;-6.288;2022-12-16T04:45:14;20.98;;;10.68;;
42586;SDS011;28216;53.362;-6.288;2022-12-16T04:47:58;23.50;;;11.52;;
42586;SDS011;28216;53.362;-6.288;2022-12-16T04:50:43;23.83;;;11.70;;
42586;SDS011;28216;53.362;-6.288;2022-12-16T04:53:28;21.60;;;10.70;;
42586;SDS011;28216;53.362;-6.288;2022-12-16T04:56:12;23.73;;;11.13;;
42586;SDS011;28216;53.362;-6.288;2022-12-16T04:58:57;21.40;;;10.80;;
42586;SDS011;28216;53.362;-6.288;2022-12-16T05:01:41;21.13;;;10.57;;
42586;SDS011;28216;53.362;-6.288;2022-12-16T05:04:25;23.88;;;10.73;;
42586;SDS011;28216;53.362;-6.288;2022-12-16T05:07:09;22.63;;;10.55;;
42586;SDS011;28216;53.362;-6.288;2022-12-16T05:09:53;23.83;;;11.20;;
42586;SDS011;28216;53.362;-6.288;2022-12-16T05:12:37;20.15;;;9.60;;
42586;SDS011;28216;53.362;-6.288;2022-12-16T05:15:21;21.92;;;10.77;;
42586;SDS011;28216;53.362;-6.288;2022-12-16T05:18:12;19.83;;;10.07;;
42586;SDS011;28216;53.362;-6.288;2022-12-16T05:20:58;18.20;;;9.35;;
42586;SDS011;28216;53.362;-6.288;2022-12-16T05:23:43;21.77;;;9.98;;
42586;SDS011;28216;53.362;-6.288;2022-12-16T05:26:27;20.20;;;9.85;;
42586;SDS011;28216;53.362;-6.288;2022-12-16T05:29:11;20.17;;;10.15;;
42586;SDS011;28216;53.362;-6.288;2022-12-16T05:31:55;20.83;;;10.57;;
42586;SDS011;28216;53.362;-6.288;2022-12-16T05:34:39;23.02;;;10.07;;
42586;SDS011;28216;53.362;-6.288;2022-12-16T05:37:23;19.17;;;9.65;;
42586;SDS011;28216;53.362;-6.288;2022-12-16T05:40:08;18.77;;;9.25;;
42586;SDS011;28216;53.362;-6.288;2022-12-16T05:42:52;19.45;;;10.35;;
42586;SDS011;28216;53.362;-6.288;2022-12-16T05:45:36;21.95;;;10.10;;
42586;SDS011;28216;53.362;-6.288;2022-12-16T05:48:22;21.67;;;10.45;;
42586;SDS011;28216;53.362;-6.288;2022-12-16T05:51:06;21.65;;;9.95;;
42586;SDS011;28216;53.362;-6.288;2022-12-16T05:53:50;18.35;;;9.10;;
42586;SDS011;28216;53.362;-6.288;2022-12-16T05:56:34;18.33;;;9.23;;
42586;SDS011;28216;53.362;-6.288;2022-12-16T05:59:18;20.63;;;9.73;;
42586;SDS011;28216;53.362;-6.288;2022-12-16T06:02:02;15.77;;;8.77;;
42586;SDS011;28216;53.362;-6.288;2022-12-16T06:04:47;19.33;;;8.95;;
42586;SDS011;28216;53.362;-6.288;2022-12-16T06:07:30;16.58;;;9.23;;
42586;SDS011;28216;53.362;-6.288;2022-12-16T06:10:14;17.85;;;8.45;;
42586;SDS011;28216;53.362;-6.288;2022-12-16T06:12:58;16.50;;;9.20;;
42586;SDS011;28216;53.362;-6.288;2022-12-16T06:15:42;17.92;;;8.73;;
42586;SDS011;28216;53.362;-6.288;2022-12-16T06:18:45;17.80;;;9.60;;
42586;SDS011;28216;53.362;-6.288;2022-12-16T06:21:29;20.02;;;9.65;;
42586;SDS011;28216;53.362;-6.288;2022-12-16T06:24:33;16.80;;;8.25;;
42586;SDS011;28216;53.362;-6.288;2022-12-16T06:27:16;14.60;;;8.02;;
42586;SDS011;28216;53.362;-6.288;2022-12-16T06:30:00;19.88;;;9.65;;
42586;SDS011;28216;53.362;-6.288;2022-12-16T06:32:58;17.77;;;8.98;;
42586;SDS011;28216;53.362;-6.288;2022-12-16T06:35:42;16.75;;;9.30;;
42586;SDS011;28216;53.362;-6.288;2022-12-16T06:38:26;17.17;;;8.80;;
42586;SDS011;28216;53.362;-6.288;2022-12-16T06:41:10;14.82;;;8.50;;
42586;SDS011;28216;53.362;-6.288;2022-12-16T06:43:54;16.02;;;8.25;;
42586;SDS011;28216;53.362;-6.288;2022-12-16T06:46:37;16.70;;;8.45;;
42586;SDS011;28216;53.362;-6.288;2022-12-16T06:49:21;12.05;;;7.93;;
42586;SDS011;28216;53.362;-6.288;2022-12-16T06:52:05;20.27;;;9.00;;
42586;SDS011;28216;53.362;-6.288;2022-12-16T06:54:49;15.52;;;8.27;;
42586;SDS011;28216;53.362;-6.288;2022-12-16T06:57:33;15.25;;;8.35;;
42586;SDS011;28216;53.362;-6.288;2022-12-16T07:00:17;22.58;;;9.70;;
42586;SDS011;28216;53.362;-6.288;2022-12-16T07:03:01;16.90;;;8.18;;
42586;SDS011;28216;53.362;-6.288;2022-12-16T07:05:45;14.90;;;8.80;;
42586;SDS011;28216;53.362;-6.288;2022-12-16T07:08:29;20.10;;;9.15;;
42586;SDS011;28216;53.362;-6.288;2022-12-16T07:11:18;19.52;;;8.93;;
42586;SDS011;28216;53.362;-6.288;2022-12-16T07:14:02;16.33;;;8.55;;
42586;SDS011;28216;53.362;-6.288;2022-12-16T07:16:46;17.13;;;9.32;;
42586;SDS011;28216;53.362;-6.288;2022-12-16T07:19:30;17.30;;;8.82;;
42586;SDS011;28216;53.362;-6.288;2022-12-16T07:22:14;17.45;;;9.63;;
42586;SDS011;28216;53.362;-6.288;2022-12-16T07:24:58;17.45;;;8.98;;
42586;SDS011;28216;53.362;-6.288;2022-12-16T07:27:45;17.40;;;8.82;;
42586;SDS011;28216;53.362;-6.288;2022-12-16T07:30:30;23.23;;;9.48;;
42586;SDS011;28216;53.362;-6.288;2022-12-16T07:33:14;18.38;;;8.85;;
42586;SDS011;28216;53.362;-6.288;2022-12-16T07:36:18;17.48;;;8.88;;
42586;SDS011;28216;53.362;-6.288;2022-12-16T07:39:01;18.27;;;9.15;;
42586;SDS011;28216;53.362;-6.288;2022-12-16T07:41:45;16.10;;;7.85;;
42586;SDS011;28216;53.362;-6.288;2022-12-16T07:44:30;17.75;;;9.00;;
42586;SDS011;28216;53.362;-6.288;2022-12-16T07:47:13;18.90;;;8.98;;
42586;SDS011;28216;53.362;-6.288;2022-12-16T07:49:57;16.85;;;8.20;;
42586;SDS011;28216;53.362;-6.288;2022-12-16T07:52:41;15.18;;;7.85;;
42586;SDS011;28216;53.362;-6.288;2022-12-16T07:55:25;18.50;;;8.43;;
42586;SDS011;28216;53.362;-6.288;2022-12-16T07:58:09;18.85;;;8.63;;
42586;SDS011;28216;53.362;-6.288;2022-12-16T08:00:53;18.92;;;8.27;;
42586;SDS011;28216;53.362;-6.288;2022-12-16T08:03:37;18.05;;;9.15;;
42586;SDS011;28216;53.362;-6.288;2022-12-16T08:06:21;17.05;;;8.00;;
42586;SDS011;28216;53.362;-6.288;2022-12-16T08:09:05;16.48;;;7.60;;
42586;SDS011;28216;53.362;-6.288;2022-12-16T08:11:49;15.35;;;8.15;;
42586;SDS011;28216;53.362;-6.288;2022-12-16T08:14:35;16.52;;;7.57;;
42586;SDS011;28216;53.362;-6.288;2022-12-16T08:17:19;17.23;;;7.93;;
42586;SDS011;28216;53.362;-6.288;2022-12-16T08:20:03;13.38;;;7.53;;
42586;SDS011;28216;53.362;-6.288;2022-12-16T08:22:47;18.63;;;7.32;;
42586;SDS011;28216;53.362;-6.288;2022-12-16T08:25:31;17.42;;;7.35;;
42586;SDS011;28216;53.362;-6.288;2022-12-16T08:28:15;14.68;;;6.78;;
42586;SDS011;28216;53.362;-6.288;2022-12-16T08:30:59;14.02;;;6.70;;
42586;SDS011;28216;53.362;-6.288;2022-12-16T08:33:43;14.10;;;6.82;;
42586;SDS011;28216;53.362;-6.288;2022-12-16T08:36:27;14.57;;;6.97;;
42586;SDS011;28216;53.362;-6.288;2022-12-16T08:39:11;14.15;;;7.68;;
42586;SDS011;28216;53.362;-6.288;2022-12-16T08:41:55;12.75;;;6.43;;
42586;SDS011;28216;53.362;-6.288;2022-12-16T08:44:39;11.10;;;6.57;;
42586;SDS011;28216;53.362;-6.288;2022-12-16T08:47:23;11.23;;;5.78;;
42586;SDS011;28216;53.362;-6.288;2022-12-16T08:50:07;13.38;;;6.75;;
42586;SDS011;28216;53.362;-6.288;2022-12-16T08:52:50;12.10;;;6.80;;
42586;SDS011;28216;53.362;-6.288;2022-12-16T08:55:35;13.40;;;6.43;;
42586;SDS011;28216;53.362;-6.288;2022-12-16T08:58:18;11.57;;;5.97;;
42586;SDS011;28216;53.362;-6.288;2022-12-16T09:01:02;12.05;;;6.40;;
42586;SDS011;28216;53.362;-6.288;2022-12-16T09:03:46;14.18;;;6.05;;
42586;SDS011;28216;53.362;-6.288;2022-12-16T09:06:30;11.98;;;5.93;;
42586;SDS011;28216;53.362;-6.288;2022-12-16T09:09:14;14.70;;;6.07;;
42586;SDS011;28216;53.362;-6.288;2022-12-16T09:11:58;12.85;;;5.70;;
42586;SDS011;28216;53.362;-6.288;2022-12-16T09:14:42;11.02;;;5.35;;
42586;SDS011;28216;53.362;-6.288;2022-12-16T09:17:26;12.40;;;5.07;;
42586;SDS011;28216;53.362;-6.288;2022-12-16T09:20:10;10.38;;;4.93;;
42586;SDS011;28216;53.362;-6.288;2022-12-16T09:22:54;6.78;;;4.10;;
42586;SDS011;28216;53.362;-6.288;2022-12-16T09:25:38;11.05;;;4.32;;
42586;SDS011;28216;53.362;-6.288;2022-12-16T09:28:23;13.45;;;4.97;;
42586;SDS011;28216;53.362;-6.288;2022-12-16T09:31:07;9.68;;;4.70;;
42586;SDS011;28216;53.362;-6.288;2022-12-16T09:33:51;9.45;;;4.80;;
42586;SDS011;28216;53.362;-6.288;2022-12-16T09:36:34;10.27;;;4.88;;
42586;SDS011;28216;53.362;-6.288;2022-12-16T09:39:18;12.35;;;5.80;;
42586;SDS011;28216;53.362;-6.288;2022-12-16T09:42:10;11.07;;;6.32;;
42586;SDS011;28216;53.362;-6.288;2022-12-16T09:51:25;13.50;;;6.28;;
42586;SDS011;28216;53.362;-6.288;2022-12-16T09:54:12;13.88;;;6.22;;
42586;SDS011;28216;53.362;-6.288;2022-12-16T09:57:00;11.32;;;5.90;;
42586;SDS011;28216;53.362;-6.288;2022-12-16T09:59:48;9.75;;;5.43;;
42586;SDS011;28216;53.362;-6.288;2022-12-16T10:02:46;11.15;;;5.43;;
42586;SDS011;28216;53.362;-6.288;2022-12-16T10:05:38;9.40;;;5.53;;
42586;SDS011;28216;53.362;-6.288;2022-12-16T10:08:40;10.02;;;5.18;;
42586;SDS011;28216;53.362;-6.288;2022-12-16T10:11:41;9.40;;;5.55;;
42586;SDS011;28216;53.362;-6.288;2022-12-16T10:14:46;12.48;;;5.20;;
42586;SDS011;28216;53.362;-6.288;2022-12-16T10:17:38;12.95;;;5.18;;
42586;SDS011;28216;53.362;-6.288;2022-12-16T10:29:36;12.97;;;5.70;;
42586;SDS011;28216;53.362;-6.288;2022-12-16T10:32:26;13.40;;;6.28;;
42586;SDS011;28216;53.362;-6.288;2022-12-16T10:38:21;9.25;;;5.00;;
42586;SDS011;28216;53.362;-6.288;2022-12-16T10:41:17;9.10;;;5.28;;
42586;SDS011;28216;53.362;-6.288;2022-12-16T10:44:02;10.82;;;5.82;;
42586;SDS011;28216;53.362;-6.288;2022-12-16T10:46:52;10.70;;;5.63;;
42586;SDS011;28216;53.362;-6.288;2022-12-16T10:49:36;12.50;;;5.70;;
42586;SDS011;28216;53.362;-6.288;2022-12-16T10:52:20;9.48;;;5.40;;
42586;SDS011;28216;53.362;-6.288;2022-12-16T10:55:16;10.48;;;6.22;;
42586;SDS011;28216;53.362;-6.288;2022-12-16T11:00:56;10.88;;;6.20;;
42586;SDS011;28216;53.362;-6.288;2022-12-16T11:03:40;10.48;;;5.70;;
42586;SDS011;28216;53.362;-6.288;2022-12-16T11:06:34;10.77;;;5.93;;
42586;SDS011;28216;53.362;-6.288;2022-12-16T11:12:33;19.25;;;6.00;;
42586;SDS011;28216;53.362;-6.288;2022-12-16T11:15:21;11.15;;;5.32;;
42586;SDS011;28216;53.362;-6.288;2022-12-16T11:18:07;13.85;;;6.65;;
42586;SDS011;28216;53.362;-6.288;2022-12-16T11:21:04;14.13;;;5.40;;
42586;SDS011;28216;53.362;-6.288;2022-12-16T11:24:12;13.57;;;5.50;;
42586;SDS011;28216;53.362;-6.288;2022-12-16T11:27:02;12.88;;;5.05;;
42586;SDS011;28216;53.362;-6.288;2022-12-16T11:29:51;12.13;;;4.78;;
42586;SDS011;28216;53.362;-6.288;2022-12-16T11:32:48;10.48;;;5.20;;
42586;SDS011;28216;53.362;-6.288;2022-12-16T11:35:36;9.32;;;4.63;;
42586;SDS011;28216;53.362;-6.288;2022-12-16T11:38:28;16.73;;;4.80;;
42586;SDS011;28216;53.362;-6.288;2022-12-16T11:41:30;14.50;;;5.15;;
42586;SDS011;28216;53.362;-6.288;2022-12-16T11:44:19;11.52;;;4.82;;
42586;SDS011;28216;53.362;-6.288;2022-12-16T11:47:12;19.35;;;5.43;;
42586;SDS011;28216;53.362;-6.288;2022-12-16T11:50:06;7.90;;;4.00;;
42586;SDS011;28216;53.362;-6.288;2022-12-16T11:52:55;9.32;;;4.07;;
42586;SDS011;28216;53.362;-6.288;2022-12-16T11:55:41;10.13;;;4.63;;
42586;SDS011;28216;53.362;-6.288;2022-12-16T11:58:44;12.65;;;4.43;;
42586;SDS011;28216;53.362;-6.288;2022-12-16T12:01:40;12.00;;;4.47;;
42586;SDS011;28216;53.362;-6.288;2022-12-16T12:04:31;13.07;;;4.85;;
42586;SDS011;28216;53.362;-6.288;2022-12-16T12:07:25;13.10;;;4.63;;
42586;SDS011;28216;53.362;-6.288;2022-12-16T12:10:22;17.23;;;4.75;;
42586;SDS011;28216;53.362;-6.288;2022-12-16T12:13:40;12.38;;;4.57;;
42586;SDS011;28216;53.362;-6.288;2022-12-16T12:22:36;8.10;;;4.63;;
42586;SDS011;28216;53.362;-6.288;2022-12-16T12:31:52;12.63;;;3.40;;
42586;SDS011;28216;53.362;-6.288;2022-12-16T12:37:21;13.05;;;2.80;;
42586;SDS011;28216;53.362;-6.288;2022-12-16T12:43:18;10.95;;;2.70;;
42586;SDS011;28216;53.362;-6.288;2022-12-16T12:46:34;17.48;;;6.32;;
42586;SDS011;28216;53.362;-6.288;2022-12-16T12:49:56;27.20;;;10.68;;
42586;SDS011;28216;53.362;-6.288;2022-12-16T12:59:05;38.15;;;12.73;;
42586;SDS011;28216;53.362;-6.288;2022-12-16T13:01:57;22.58;;;8.73;;
42586;SDS011;28216;53.362;-6.288;2022-12-16T13:04:42;38.67;;;13.20;;
42586;SDS011;28216;53.362;-6.288;2022-12-16T13:07:30;18.33;;;9.25;;
42586;SDS011;28216;53.362;-6.288;2022-12-16T13:16:02;6.95;;;2.92;;
42586;SDS011;28216;53.362;-6.288;2022-12-16T13:18:47;6.25;;;2.75;;
42586;SDS011;28216;53.362;-6.288;2022-12-16T13:27:09;8.30;;;3.05;;
42586;SDS011;28216;53.362;-6.288;2022-12-16T13:30:05;18.27;;;5.20;;
42586;SDS011;28216;53.362;-6.288;2022-12-16T13:33:04;5.77;;;2.63;;
42586;SDS011;28216;53.362;-6.288;2022-12-16T13:35:53;11.60;;;3.38;;
42586;SDS011;28216;53.362;-6.288;2022-12-16T13:38:46;6.57;;;2.60;;
42586;SDS011;28216;53.362;-6.288;2022-12-16T13:50:44;7.38;;;2.47;;
42586;SDS011;28216;53.362;-6.288;2022-12-16T13:53:30;4.22;;;2.28;;
42586;SDS011;28216;53.362;-6.288;2022-12-16T13:56:22;4.50;;;2.00;;
42586;SDS011;28216;53.362;-6.288;2022-12-16T13:59:14;7.03;;;1.92;;
42586;SDS011;28216;53.362;-6.288;2022-12-16T14:02:11;6.38;;;2.10;;
42586;SDS011;28216;53.362;-6.288;2022-12-16T14:05:02;7.07;;;2.05;;
42586;SDS011;28216;53.362;-6.288;2022-12-16T14:07:46;6.45;;;2.67;;
42586;SDS011;28216;53.362;-6.288;2022-12-16T14:10:35;6.00;;;2.03;;
42586;SDS011;28216;53.362;-6.288;2022-12-16T14:16:13;5.05;;;1.60;;
42586;SDS011;28216;53.362;-6.288;2022-12-16T14:19:01;6.55;;;2.45;;
42586;SDS011;28216;53.362;-6.288;2022-12-16T14:21:59;5.95;;;1.65;;
42586;SDS011;28216;53.362;-6.288;2022-12-16T14:25:02;6.00;;;1.92;;
42586;SDS011;28216;53.362;-6.288;2022-12-16T14:28:07;6.45;;;1.67;;
42586;SDS011;28216;53.362;-6.288;2022-12-16T14:31:05;4.47;;;1.33;;
42586;SDS011;28216;53.362;-6.288;2022-12-16T14:34:09;8.52;;;1.90;;
42586;SDS011;28216;53.362;-6.288;2022-12-16T14:43:22;7.88;;;2.05;;
42586;SDS011;28216;53.362;-6.288;2022-12-16T14:46:26;3.78;;;2.15;;
42586;SDS011;28216;53.362;-6.288;2022-12-16T14:52:23;4.93;;;2.33;;
42586;SDS011;28216;53.362;-6.288;2022-12-16T14:55:31;4.35;;;2.28;;
42586;SDS011;28216;53.362;-6.288;2022-12-16T14:58:16;7.45;;;2.85;;
42586;SDS011;28216;53.362;-6.288;2022-12-16T15:04:02;4.55;;;2.15;;
42586;SDS011;28216;53.362;-6.288;2022-12-16T15:06:55;4.63;;;1.90;;
42586;SDS011;28216;53.362;-6.288;2022-12-16T15:09:40;6.20;;;2.20;;
42586;SDS011;28216;53.362;-6.288;2022-12-16T15:12:32;7.57;;;1.98;;
42586;SDS011;28216;53.362;-6.288;2022-12-16T15:15:25;10.13;;;2.15;;
42586;SDS011;28216;53.362;-6.288;2022-12-16T15:18:22;6.70;;;1.85;;
42586;SDS011;28216;53.362;-6.288;2022-12-16T15:21:12;5.95;;;2.15;;
42586;SDS011;28216;53.362;-6.288;2022-12-16T15:23:56;12.85;;;2.97;;
42586;SDS011;28216;53.362;-6.288;2022-12-16T15:26:43;8.50;;;3.78;;
42586;SDS011;28216;53.362;-6.288;2022-12-16T15:29:37;7.65;;;4.18;;
42586;SDS011;28216;53.362;-6.288;2022-12-16T15:38:28;11.75;;;5.10;;
42586;SDS011;28216;53.362;-6.288;2022-12-16T15:44:04;11.88;;;3.28;;
42586;SDS011;28216;53.362;-6.288;2022-12-16T15:46:48;5.22;;;3.08;;
42586;SDS011;28216;53.362;-6.288;2022-12-16T15:49:33;13.55;;;4.60;;
42586;SDS011;28216;53.362;-6.288;2022-12-16T15:55:24;9.52;;;3.58;;
42586;SDS011;28216;53.362;-6.288;2022-12-16T16:01:01;10.20;;;4.20;;
42586;SDS011;28216;53.362;-6.288;2022-12-16T16:03:47;14.32;;;6.35;;
42586;SDS011;28216;53.362;-6.288;2022-12-16T16:06:32;12.32;;;4.05;;
42586;SDS011;28216;53.362;-6.288;2022-12-16T16:12:06;6.50;;;3.17;;
42586;SDS011;28216;53.362;-6.288;2022-12-16T16:14:52;7.93;;;3.60;;
42586;SDS011;28216;53.362;-6.288;2022-12-16T16:17:36;9.65;;;3.28;;
42586;SDS011;28216;53.362;-6.288;2022-12-16T16:20:20;9.02;;;3.40;;
42586;SDS011;28216;53.362;-6.288;2022-12-16T16:23:04;9.05;;;4.65;;
42586;SDS011;28216;53.362;-6.288;2022-12-16T16:25:53;8.38;;;4.63;;
42586;SDS011;28216;53.362;-6.288;2022-12-16T16:28:37;11.40;;;4.60;;
42586;SDS011;28216;53.362;-6.288;2022-12-16T16:31:22;11.93;;;4.47;;
42586;SDS011;28216;53.362;-6.288;2022-12-16T16:34:05;9.38;;;4.35;;
42586;SDS011;28216;53.362;-6.288;2022-12-16T16:36:53;9.25;;;3.72;;
42586;SDS011;28216;53.362;-6.288;2022-12-16T16:39:40;8.27;;;4.05;;
42586;SDS011;28216;53.362;-6.288;2022-12-16T16:42:24;8.73;;;3.75;;
42586;SDS011;28216;53.362;-6.288;2022-12-16T16:45:09;8.23;;;3.15;;
42586;SDS011;28216;53.362;-6.288;2022-12-16T16:47:54;5.82;;;2.80;;
42586;SDS011;28216;53.362;-6.288;2022-12-16T16:50:47;7.50;;;3.10;;
42586;SDS011;28216;53.362;-6.288;2022-12-16T16:53:31;10.02;;;2.60;;
42586;SDS011;28216;53.362;-6.288;2022-12-16T16:56:15;5.45;;;2.50;;
42586;SDS011;28216;53.362;-6.288;2022-12-16T16:59:00;7.28;;;3.25;;
42586;SDS011;28216;53.362;-6.288;2022-12-16T17:01:44;7.07;;;2.47;;
42586;SDS011;28216;53.362;-6.288;2022-12-16T17:04:28;6.15;;;2.85;;
42586;SDS011;28216;53.362;-6.288;2022-12-16T17:07:12;6.80;;;3.30;;
42586;SDS011;28216;53.362;-6.288;2022-12-16T17:09:56;8.23;;;2.95;;
42586;SDS011;28216;53.362;-6.288;2022-12-16T17:12:40;7.97;;;3.67;;
42586;SDS011;28216;53.362;-6.288;2022-12-16T17:15:28;6.07;;;2.95;;
42586;SDS011;28216;53.362;-6.288;2022-12-16T17:18:15;5.32;;;2.35;;
42586;SDS011;28216;53.362;-6.288;2022-12-16T17:20:59;6.25;;;3.00;;
42586;SDS011;28216;53.362;-6.288;2022-12-16T17:23:43;5.25;;;2.65;;
42586;SDS011;28216;53.362;-6.288;2022-12-16T17:26:27;8.73;;;3.53;;
42586;SDS011;28216;53.362;-6.288;2022-12-16T17:29:20;10.00;;;3.72;;
42586;SDS011;28216;53.362;-6.288;2022-12-16T17:32:05;7.65;;;3.00;;
42586;SDS011;28216;53.362;-6.288;2022-12-16T17:34:50;9.63;;;4.43;;
42586;SDS011;28216;53.362;-6.288;2022-12-16T17:37:34;10.10;;;5.18;;
42586;SDS011;28216;53.362;-6.288;2022-12-16T17:40:18;10.18;;;6.35;;
42586;SDS011;28216;53.362;-6.288;2022-12-16T17:43:02;16.38;;;8.02;;
42586;SDS011;28216;53.362;-6.288;2022-12-16T17:45:56;4.03;;;3.05;;
42586;SDS011;28216;53.362;-6.288;2022-12-16T17:48:52;5.78;;;2.95;;
42586;SDS011;28216;53.362;-6.288;2022-12-16T17:51:38;4.88;;;2.90;;
42586;SDS011;28216;53.362;-6.288;2022-12-16T17:54:22;5.95;;;3.70;;
42586;SDS011;28216;53.362;-6.288;2022-12-16T17:57:06;7.22;;;3.15;;
42586;SDS011;28216;53.362;-6.288;2022-12-16T17:59:50;8.45;;;3.70;;
42586;SDS011;28216;53.362;-6.288;2022-12-16T18:02:34;8.85;;;3.72;;
42586;SDS011;28216;53.362;-6.288;2022-12-16T18:05:32;6.95;;;4.10;;
42586;SDS011;28216;53.362;-6.288;2022-12-16T18:08:16;5.72;;;2.90;;
42586;SDS011;28216;53.362;-6.288;2022-12-16T18:11:00;6.03;;;3.20;;
42586;SDS011;28216;53.362;-6.288;2022-12-16T18:13:44;7.43;;;3.30;;